Gaars Mill, Louisiana
Current Conditions -  °F | °C
As of 11:15 AM on Thursday 27 Nov 2014 (Local Time) from KRSN Reporting Station
Clear Clear  
Wind Chill:   Ceiling: Unl
Heat Index: 10°   Visibility: 10mi
Dew Point: -1°   Wind: 10mph
Humidity: 48%   Direction: 10°N
Pressure: 30.57"   Gusts: NA
Location:  32.0727°N, 92.6697°W
Report Text: KRSN 271715Z AUTO 01009KT 10SM CLR 10/M01 A3057 RMK AO2 T00971008
Loading
Personal Weather Stations






























Interactive Weather Map New forecast layout! Learn more

10-Day Weather Forecast

Advertisements
Track Severe Weather on mobile